Time;durP1;ratioP1;P1;durP2;ratioP2;P2;SDS_P1;SDS_P2;PMS_P1;PMS_P2;Temp;Humidity;BMP_temperature;BMP_pressure;BME280_temperature;BME280_humidity;BME280_pressure;Samples;Min_cycle;Max_cycle;Signal;HPM_P1;HPM_P2
2023/02/09 00:01:09;;;;;;;23.45;14.38;;;0.20;72.90;;;;;;5058853;28;20040;-71
2023/02/09 00:03:35;;;;;;;21.95;14.45;;;0.30;72.80;;;;;;5046971;28;20028;-71
2023/02/09 00:06:03;;;;;;;22.90;14.85;;;0.20;72.60;;;;;;5063601;28;20033;-70
2023/02/09 00:08:29;;;;;;;21.30;14.88;;;0.30;72.20;;;;;;5065447;28;20323;-70
2023/02/09 00:10:55;;;;;;;20.85;14.27;;;0.20;71.80;;;;;;5065095;28;20428;-72
2023/02/09 00:13:22;;;;;;;22.17;14.65;;;0.30;71.50;;;;;;5066811;28;20036;-71
2023/02/09 00:15:55;;;;;;;19.98;14.00;;;0.20;71.30;;;;;;5064008;28;20048;-73
2023/02/09 00:18:22;;;;;;;21.95;14.45;;;0.20;71.10;;;;;;5045572;28;20024;-71
2023/02/09 00:21:17;;;;;;;21.83;12.90;;;0.20;71.00;;;;;;5065030;28;20119;-70
2023/02/09 00:23:43;;;;;;;22.17;14.63;;;0.20;70.90;;;;;;5049815;28;20112;-71
2023/02/09 00:26:11;;;;;;;19.88;13.60;;;0.20;70.70;;;;;;5066231;28;20170;-70
2023/02/09 00:28:37;;;;;;;24.40;13.90;;;0.20;70.40;;;;;;5063834;28;20086;-71
2023/02/09 00:31:07;;;;;;;21.08;13.82;;;0.20;70.20;;;;;;5062632;28;20036;-73
2023/02/09 00:33:33;;;;;;;22.92;14.50;;;0.20;69.90;;;;;;5063586;28;20476;-76
2023/02/09 00:35:58;;;;;;;20.48;13.35;;;0.20;69.70;;;;;;5063802;28;20040;-74
2023/02/09 00:38:24;;;;;;;22.17;13.48;;;0.10;69.60;;;;;;5065667;28;20056;-72
2023/02/09 00:40:51;;;;;;;22.75;15.27;;;0.10;69.60;;;;;;5064633;28;20032;-71
2023/02/09 00:43:16;;;;;;;20.17;14.32;;;0.10;69.60;;;;;;5063080;28;20036;-71
2023/02/09 00:45:42;;;;;;;22.40;14.55;;;0.10;69.90;;;;;;5045260;28;20059;-72
2023/02/09 00:48:08;;;;;;;20.63;14.77;;;0.10;70.10;;;;;;5064227;28;20028;-71
2023/02/09 00:50:33;;;;;;;31.08;16.15;;;0.10;70.20;;;;;;5063186;28;20434;-73
2023/02/09 00:52:59;;;;;;;25.08;15.57;;;0.10;70.50;;;;;;5045566;28;20450;-72
2023/02/09 00:55:25;;;;;;;27.02;16.27;;;0.10;70.70;;;;;;5063023;28;20411;-70
2023/02/09 00:57:50;;;;;;;23.88;14.35;;;0.10;70.60;;;;;;5064259;28;20464;-69
2023/02/09 01:00:16;;;;;;;21.58;14.07;;;0.10;70.60;;;;;;5043529;28;20070;-71
2023/02/09 01:02:42;;;;;;;19.77;14.25;;;0.00;70.40;;;;;;5062999;28;20130;-70
2023/02/09 01:05:08;;;;;;;21.75;13.88;;;0.10;70.20;;;;;;5059758;28;20025;-71
2023/02/09 01:07:33;;;;;;;23.58;14.52;;;0.10;70.10;;;;;;5045304;28;20045;-72
2023/02/09 01:10:01;;;;;;;20.25;12.82;;;0.10;70.10;;;;;;5062526;28;20020;-73
2023/02/09 01:12:27;;;;;;;21.02;12.93;;;0.10;69.90;;;;;;5062962;28;20052;-70
2023/02/09 01:14:53;;;;;;;21.58;13.77;;;0.10;69.80;;;;;;5062847;28;20063;-71
2023/02/09 01:17:19;;;;;;;21.85;13.77;;;0.10;69.70;;;;;;5061205;28;20091;-70
2023/02/09 01:19:44;;;;;;;19.42;12.43;;;0.10;69.50;;;;;;5062871;28;20496;-74
2023/02/09 01:22:11;;;;;;;23.45;12.77;;;0.10;69.20;;;;;;5056255;28;20041;-71
2023/02/09 01:24:39;;;;;;;20.40;12.25;;;0.10;69.10;;;;;;5043760;28;20111;-76
2023/02/09 01:27:05;;;;;;;18.98;12.68;;;0.10;69.10;;;;;;5059770;28;20078;-71
2023/02/09 01:29:31;;;;;;;19.88;12.93;;;0.10;69.00;;;;;;5060518;28;20044;-71
2023/02/09 01:31:56;;;;;;;17.58;12.18;;;0.10;68.80;;;;;;5061770;28;20073;-72
2023/02/09 01:34:22;;;;;;;19.88;12.85;;;0.10;68.60;;;;;;5061390;28;20164;-72
2023/02/09 01:36:47;;;;;;;20.85;12.82;;;0.10;68.30;;;;;;5063103;28;20035;-73
2023/02/09 01:39:14;;;;;;;20.15;13.00;;;0.10;68.20;;;;;;5062189;28;20121;-73
2023/02/09 01:41:41;;;;;;;19.02;11.95;;;0.10;68.10;;;;;;5060977;28;20033;-70
2023/02/09 01:44:29;;;;;;;19.70;11.48;;;0.10;68.10;;;;;;5063101;28;20074;-72
2023/02/09 01:46:55;;;;;;;19.25;11.77;;;0.10;68.00;;;;;;5061544;28;20029;-73
2023/02/09 01:49:26;;;;;;;23.65;12.48;;;0.10;67.90;;;;;;5060045;28;20078;-71
2023/02/09 01:52:18;;;;;;;18.95;12.13;;;0.10;67.80;;;;;;5062200;28;20045;-71
2023/02/09 01:54:58;;;;;;;18.20;12.00;;;0.10;67.80;;;;;;5040674;28;20346;-72
2023/02/09 01:57:29;;;;;;;20.60;11.50;;;0.00;67.70;;;;;;5058188;28;20516;-73
2023/02/09 02:00:00;;;;;;;18.90;11.80;;;0.00;67.80;;;;;;5059400;28;20062;-73
2023/02/09 02:02:26;;;;;;;18.27;12.18;;;0.00;67.70;;;;;;5056359;28;20042;-78
2023/02/09 02:04:52;;;;;;;18.60;12.55;;;0.00;67.30;;;;;;5058588;28;20529;-71
2023/02/09 02:07:48;;;;;;;18.08;11.98;;;0.00;67.00;;;;;;5059108;28;20462;-71
2023/02/09 02:10:14;;;;;;;18.25;11.85;;;0.00;66.80;;;;;;5057957;28;20051;-73
2023/02/09 02:12:40;;;;;;;25.63;12.07;;;0.00;66.70;;;;;;5039592;28;20040;-71
2023/02/09 02:15:07;;;;;;;17.90;11.80;;;0.00;67.00;;;;;;5058794;28;20020;-73
2023/02/09 02:18:11;;;;;;;17.88;10.90;;;0.00;67.60;;;;;;5039293;28;20033;-70
2023/02/09 02:20:58;;;;;;;16.75;10.23;;;0.00;67.20;;;;;;5054672;28;20111;-70
2023/02/09 02:23:52;;;;;;;16.85;10.52;;;0.10;66.40;;;;;;5058648;28;20029;-72
2023/02/09 02:26:26;;;;;;;18.40;10.48;;;0.10;66.10;;;;;;5058575;28;20032;-75
2023/02/09 02:29:11;;;;;;;;;;;0.10;65.70;;;;;;5061181;28;20072;-71
2023/02/09 02:32:08;;;;;;;15.85;9.38;;;0.20;65.10;;;;;;5059007;28;19942;-72
2023/02/09 02:34:43;;;;;;;16.35;9.60;;;0.40;64.40;;;;;;5055121;28;20638;-75
2023/02/09 02:37:30;;;;;;;14.65;9.52;;;0.40;64.40;;;;;;5060802;28;20024;-71
2023/02/09 02:40:14;;;;;;;16.25;9.27;;;0.40;64.00;;;;;;5059505;28;20037;-74
2023/02/09 02:43:02;;;;;;;15.88;9.23;;;0.50;63.60;;;;;;5056360;28;20504;-71
2023/02/09 02:45:37;;;;;;;16.17;8.80;;;0.50;63.60;;;;;;5052658;28;20044;-72
2023/02/09 02:48:16;;;;;;;15.52;8.68;;;0.50;63.40;;;;;;5058961;28;20115;-71
2023/02/09 02:51:09;;;;;;;13.95;8.50;;;0.50;63.50;;;;;;5059163;28;20063;-72
2023/02/09 02:53:38;;;;;;;14.88;8.85;;;0.50;63.30;;;;;;5057435;28;20155;-73
2023/02/09 02:56:11;;;;;;;14.15;9.02;;;0.50;63.50;;;;;;5057095;28;20052;-71
2023/02/09 02:58:40;;;;;;;15.73;9.55;;;0.50;63.60;;;;;;5058771;28;20015;-70
2023/02/09 03:01:09;;;;;;;16.02;9.13;;;0.50;63.30;;;;;;5057356;28;20033;-70
2023/02/09 03:03:37;;;;;;;16.02;8.95;;;0.50;63.50;;;;;;5058956;28;20025;-70
2023/02/09 03:06:05;;;;;;;16.25;9.88;;;0.50;63.80;;;;;;5055762;28;20068;-74
2023/02/09 03:08:49;;;;;;;14.10;9.05;;;0.40;64.00;;;;;;5060543;28;20013;-70
2023/02/09 03:11:17;;;;;;;17.42;9.98;;;0.40;64.30;;;;;;5060681;28;20036;-70
2023/02/09 03:14:11;;;;;;;15.93;9.75;;;0.40;64.30;;;;;;5059366;28;20143;-70
2023/02/09 03:16:47;;;;;;;18.23;9.70;;;0.30;64.50;;;;;;5056579;28;20511;-73
2023/02/09 03:19:41;;;;;;;17.35;10.18;;;0.30;64.70;;;;;;5061465;28;20111;-72
2023/02/09 03:22:33;;;;;;;14.90;10.10;;;0.30;64.80;;;;;;5056968;28;20119;-72
2023/02/09 03:25:06;;;;;;;14.93;10.20;;;0.20;64.90;;;;;;5052094;28;20036;-72
2023/02/09 03:27:43;;;;;;;15.18;9.45;;;0.20;65.40;;;;;;5058435;28;20090;-71
2023/02/09 03:30:12;;;;;;;17.90;10.00;;;0.30;65.10;;;;;;5056940;28;20024;-72
2023/02/09 03:32:43;;;;;;;18.75;11.55;;;0.20;65.00;;;;;;5060466;28;20152;-73
2023/02/09 03:35:11;;;;;;;23.60;12.63;;;0.20;65.10;;;;;;5059907;28;20028;-73
2023/02/09 03:37:37;;;;;;;21.05;10.77;;;0.20;65.50;;;;;;5057778;28;20074;-72
2023/02/09 03:40:03;;;;;;;20.55;12.10;;;0.20;65.60;;;;;;5060510;28;20033;-73
2023/02/09 03:42:28;;;;;;;19.65;12.02;;;0.30;65.60;;;;;;5060391;28;20035;-73
2023/02/09 03:44:54;;;;;;;18.75;11.38;;;0.30;65.60;;;;;;5059184;28;20028;-71
2023/02/09 03:47:20;;;;;;;20.20;11.77;;;0.20;65.80;;;;;;5057656;28;20277;-70
2023/02/09 03:49:45;;;;;;;20.15;13.15;;;0.20;66.00;;;;;;5058218;28;20108;-71
2023/02/09 03:52:13;;;;;;;23.25;11.65;;;0.20;66.00;;;;;;5059680;28;20297;-71
2023/02/09 03:54:39;;;;;;;28.25;14.13;;;0.30;65.50;;;;;;5058441;28;20027;-70
2023/02/09 03:57:05;;;;;;;21.55;12.73;;;0.30;65.40;;;;;;5052949;28;20033;-70
2023/02/09 03:59:36;;;;;;;21.52;12.77;;;0.30;65.60;;;;;;5056365;28;20032;-70
2023/02/09 04:02:04;;;;;;;26.30;13.15;;;0.40;65.50;;;;;;5055914;28;20186;-71
2023/02/09 04:04:30;;;;;;;23.40;13.05;;;0.30;65.60;;;;;;5059925;28;20139;-74
2023/02/09 04:06:57;;;;;;;20.13;12.52;;;0.40;65.70;;;;;;5057389;28;20041;-72
2023/02/09 04:09:23;;;;;;;24.35;13.35;;;0.30;65.60;;;;;;5061415;28;20032;-72
2023/02/09 04:11:49;;;;;;;20.45;12.63;;;0.30;65.70;;;;;;5057935;28;20456;-71
2023/02/09 04:14:15;;;;;;;23.23;13.15;;;0.30;65.80;;;;;;5057289;28;20039;-72
2023/02/09 04:16:41;;;;;;;21.55;13.23;;;0.30;65.90;;;;;;5056910;28;20079;-72
2023/02/09 04:19:08;;;;;;;21.95;12.10;;;0.30;65.90;;;;;;5042959;28;20035;-70
2023/02/09 04:21:35;;;;;;;24.90;13.02;;;0.20;66.00;;;;;;5059428;28;20646;-71
2023/02/09 04:24:00;;;;;;;23.02;12.23;;;0.20;66.00;;;;;;5057808;28;20033;-71
2023/02/09 04:26:26;;;;;;;20.73;13.02;;;0.20;66.20;;;;;;5039855;28;20051;-71
2023/02/09 04:28:52;;;;;;;21.15;12.05;;;0.20;66.10;;;;;;5061230;28;20090;-72
2023/02/09 04:31:18;;;;;;;20.40;12.13;;;0.20;66.10;;;;;;5056886;28;20551;-74
2023/02/09 04:33:43;;;;;;;20.90;11.32;;;0.20;66.30;;;;;;5056075;28;20037;-72
2023/02/09 04:36:09;;;;;;;22.27;11.95;;;0.20;66.20;;;;;;5058583;28;20082;-70
2023/02/09 04:38:35;;;;;;;23.10;11.90;;;0.20;66.30;;;;;;5060020;28;20029;-71
2023/02/09 04:41:02;;;;;;;20.35;12.20;;;0.20;66.40;;;;;;5062162;28;20473;-71
2023/02/09 04:43:28;;;;;;;21.42;12.20;;;0.20;66.60;;;;;;5061971;28;20130;-71
2023/02/09 04:45:54;;;;;;;23.98;12.10;;;0.10;66.60;;;;;;5058043;28;20029;-71
2023/02/09 04:48:23;;;;;;;21.63;12.02;;;0.20;66.90;;;;;;5060075;28;20028;-71
2023/02/09 04:50:50;;;;;;;21.42;11.90;;;0.20;66.90;;;;;;5062349;28;20037;-69
2023/02/09 04:53:16;;;;;;;22.45;12.70;;;0.20;67.10;;;;;;5062255;28;20040;-75
2023/02/09 04:55:43;;;;;;;25.05;13.55;;;0.20;67.20;;;;;;5044363;28;20041;-70
2023/02/09 05:00:59;;;;;;;20.45;12.93;;;0.10;67.70;;;;;;5061081;28;20113;-71
2023/02/09 05:03:25;;;;;;;20.45;12.45;;;0.10;67.90;;;;;;5062929;28;20444;-75
2023/02/09 05:06:01;;;;;;;19.40;11.77;;;0.10;67.90;;;;;;5040459;28;20033;-73
2023/02/09 05:08:28;;;;;;;22.73;11.32;;;0.00;68.20;;;;;;5042826;28;20123;-71
2023/02/09 05:10:54;;;;;;;22.85;12.30;;;0.10;68.70;;;;;;5063552;28;20052;-70
2023/02/09 05:13:21;;;;;;;24.23;12.90;;;0.10;68.30;;;;;;5061569;28;20115;-72
2023/02/09 05:15:47;;;;;;;21.50;12.05;;;0.00;68.50;;;;;;5060331;28;20033;-72
2023/02/09 05:18:14;;;;;;;22.58;11.80;;;0.00;68.50;;;;;;5060477;28;20596;-71
2023/02/09 05:20:40;;;;;;;20.25;11.98;;;0.00;68.90;;;;;;5057508;28;20489;-74
2023/02/09 05:23:06;;;;;;;21.88;11.80;;;0.00;68.80;;;;;;5041152;28;20032;-75
2023/02/09 05:25:32;;;;;;;21.35;12.77;;;0.00;68.90;;;;;;5053652;28;20028;-75
2023/02/09 05:27:57;;;;;;;22.17;11.73;;;0.00;69.20;;;;;;5059524;28;20049;-72
2023/02/09 05:30:25;;;;;;;22.00;11.70;;;0.00;69.30;;;;;;5049786;28;20114;-73
2023/02/09 05:32:51;;;;;;;24.20;13.05;;;0.00;69.40;;;;;;5060718;28;20036;-73
2023/02/09 05:35:17;;;;;;;22.45;12.65;;;-3276.70;69.50;;;;;;5058782;28;20063;-73
2023/02/09 05:37:42;;;;;;;20.55;12.82;;;0.00;69.50;;;;;;5057871;28;20037;-71
2023/02/09 05:40:08;;;;;;;26.00;12.98;;;-3276.70;69.70;;;;;;5058432;28;20125;-72
2023/02/09 05:42:34;;;;;;;21.45;12.80;;;-3276.70;69.70;;;;;;5056670;28;20041;-75
2023/02/09 05:45:00;;;;;;;22.55;13.57;;;-3276.70;69.80;;;;;;5052907;28;20029;-72
2023/02/09 05:47:26;;;;;;;21.70;13.18;;;-3276.70;70.00;;;;;;5040811;28;20411;-75
2023/02/09 05:49:51;;;;;;;23.90;12.35;;;-3276.70;70.10;;;;;;5040017;28;20025;-73
2023/02/09 05:52:18;;;;;;;25.45;13.07;;;-3276.60;70.20;;;;;;5062063;28;20421;-72
2023/02/09 05:54:46;;;;;;;24.83;14.18;;;-3276.60;70.50;;;;;;5058571;28;20659;-73
2023/02/09 05:57:11;;;;;;;27.15;14.18;;;-3276.60;70.60;;;;;;5057022;28;20048;-72
2023/02/09 05:59:37;;;;;;;25.13;14.45;;;-3276.60;70.60;;;;;;5058822;28;20036;-72
2023/02/09 06:02:03;;;;;;;24.77;13.07;;;-3276.60;70.70;;;;;;5056614;28;21021;-73
2023/02/09 06:04:29;;;;;;;23.98;13.13;;;-3276.60;70.90;;;;;;5059281;28;20056;-74
2023/02/09 06:06:55;;;;;;;23.55;13.30;;;-3276.60;71.00;;;;;;5059211;28;20029;-72
2023/02/09 06:09:21;;;;;;;23.55;12.88;;;-3276.60;70.90;;;;;;5049647;28;20035;-72
2023/02/09 06:11:47;;;;;;;24.27;13.15;;;-3276.50;71.00;;;;;;5060219;28;20436;-73
2023/02/09 06:14:13;;;;;;;24.95;13.77;;;-3276.50;71.10;;;;;;5056269;28;20518;-75
2023/02/09 06:16:42;;;;;;;28.73;12.43;;;-3276.50;71.40;;;;;;5055807;28;20052;-75
2023/02/09 06:19:15;;;;;;;21.63;12.43;;;-3276.50;71.30;;;;;;5057909;28;20020;-72
2023/02/09 06:21:41;;;;;;;23.57;12.60;;;-3276.50;71.60;;;;;;5057110;28;20097;-73
2023/02/09 06:24:07;;;;;;;20.90;12.95;;;-3276.50;71.80;;;;;;5059789;28;20426;-76
2023/02/09 06:26:33;;;;;;;23.35;12.93;;;-3276.50;71.60;;;;;;5056162;28;20040;-72
2023/02/09 06:28:59;;;;;;;24.90;12.90;;;-3276.50;71.80;;;;;;5034857;28;20097;-74
2023/02/09 06:31:24;;;;;;;20.50;13.30;;;-3276.40;72.00;;;;;;5057995;28;20033;-72
2023/02/09 06:33:50;;;;;;;20.13;11.40;;;-3276.40;72.00;;;;;;5059327;28;20090;-71
2023/02/09 06:36:16;;;;;;;23.90;13.13;;;-3276.40;72.10;;;;;;5051203;28;20103;-72
2023/02/09 06:38:41;;;;;;;23.55;13.63;;;-3276.40;72.10;;;;;;5057424;28;20029;-73
2023/02/09 06:41:07;;;;;;;22.35;13.35;;;-3276.40;72.30;;;;;;5060818;28;20039;-73
2023/02/09 06:43:33;;;;;;;23.33;13.40;;;-3276.40;72.30;;;;;;5059543;28;20036;-72
2023/02/09 06:46:07;;;;;;;23.85;12.00;;;-3276.40;72.20;;;;;;5055657;28;20063;-72
2023/02/09 06:48:33;;;;;;;25.42;13.35;;;-3276.40;72.30;;;;;;5053978;28;20021;-76
2023/02/09 06:50:59;;;;;;;19.52;11.88;;;-3276.40;72.40;;;;;;5055327;28;20060;-74
2023/02/09 06:53:24;;;;;;;19.35;11.82;;;-3276.40;72.40;;;;;;5058852;28;20381;-80
2023/02/09 06:55:50;;;;;;;22.63;12.30;;;-3276.40;72.60;;;;;;5039587;28;20033;-74
2023/02/09 06:58:16;;;;;;;21.15;13.48;;;-3276.40;72.70;;;;;;5039661;28;20025;-74
2023/02/09 07:00:41;;;;;;;20.63;12.38;;;-3276.40;72.70;;;;;;5056097;28;20020;-74
2023/02/09 07:03:07;;;;;;;22.75;12.75;;;-3276.40;72.70;;;;;;5041224;28;20464;-76
2023/02/09 07:05:33;;;;;;;21.58;12.85;;;-3276.40;72.70;;;;;;5047549;28;20433;-76
2023/02/09 07:07:59;;;;;;;22.88;13.80;;;-3276.50;72.50;;;;;;5058033;28;20427;-74
2023/02/09 07:10:25;;;;;;;19.88;13.27;;;-3276.40;72.50;;;;;;5057044;28;20476;-75
2023/02/09 07:12:50;;;;;;;23.95;13.23;;;-3276.40;72.70;;;;;;5060271;28;20026;-76
2023/02/09 07:15:16;;;;;;;25.23;13.43;;;-3276.50;72.80;;;;;;5054439;28;20037;-75
2023/02/09 07:17:42;;;;;;;20.52;12.23;;;-3276.40;72.60;;;;;;5059034;28;20202;-75
2023/02/09 07:20:08;;;;;;;22.35;12.93;;;-3276.40;72.80;;;;;;5060828;28;20130;-76
2023/02/09 07:22:34;;;;;;;20.80;12.80;;;-3276.50;72.70;;;;;;5058315;28;20074;-78
2023/02/09 07:25:00;;;;;;;19.27;12.48;;;-3276.50;72.70;;;;;;5060446;28;20098;-76
2023/02/09 07:27:26;;;;;;;21.73;12.65;;;-3276.50;72.90;;;;;;5056138;28;20457;-79
2023/02/09 07:29:52;;;;;;;23.63;13.10;;;-3276.50;72.50;;;;;;5058318;28;20032;-75
2023/02/09 07:32:18;;;;;;;23.60;13.18;;;-3276.50;72.50;;;;;;5058497;28;20495;-74
2023/02/09 07:34:43;;;;;;;23.30;12.95;;;-3276.60;72.50;;;;;;5056512;28;20032;-78
2023/02/09 07:37:09;;;;;;;20.27;12.02;;;-3276.60;72.40;;;;;;5056376;28;20111;-74
2023/02/09 07:39:35;;;;;;;20.70;12.45;;;-3276.50;72.50;;;;;;5056704;28;20033;-76
2023/02/09 07:42:01;;;;;;;21.15;12.32;;;-3276.60;72.50;;;;;;5055961;28;20033;-74
2023/02/09 07:44:26;;;;;;;20.08;13.63;;;-3276.70;72.30;;;;;;5055606;28;20028;-79
2023/02/09 07:46:52;;;;;;;19.15;12.15;;;-3276.70;72.40;;;;;;5058906;28;20341;-76
2023/02/09 07:49:18;;;;;;;21.02;13.02;;;-3276.70;72.30;;;;;;5043470;28;20043;-75
2023/02/09 07:51:43;;;;;;;20.50;12.95;;;0.00;72.00;;;;;;5052983;28;20079;-74
2023/02/09 07:54:15;;;;;;;22.17;13.50;;;0.00;71.80;;;;;;5039752;28;20031;-74
2023/02/09 07:56:40;;;;;;;21.80;12.93;;;0.10;71.70;;;;;;5057467;28;20125;-75
2023/02/09 07:59:08;;;;;;;23.10;13.98;;;0.10;71.70;;;;;;5061544;28;20459;-75
2023/02/09 08:01:34;;;;;;;23.85;14.05;;;0.10;71.50;;;;;;5057185;28;20036;-81
2023/02/09 08:04:00;;;;;;;25.60;13.73;;;0.20;71.60;;;;;;5062739;28;20117;-77
2023/02/09 08:06:36;;;;;;;22.52;14.68;;;0.20;71.40;;;;;;5061655;28;20044;-82
2023/02/09 08:09:03;;;;;;;24.42;14.15;;;0.20;71.30;;;;;;5062087;28;20091;-74
2023/02/09 08:11:53;;;;;;;22.10;13.02;;;0.40;71.10;;;;;;5057696;28;20086;-78
2023/02/09 08:14:33;;;;;;;21.27;13.05;;;0.40;71.00;;;;;;5057607;28;20047;-75
2023/02/09 08:20:02;;;;;;;23.83;13.63;;;0.50;70.60;;;;;;5064219;28;20039;-75
2023/02/09 08:22:31;;;;;;;20.73;12.93;;;0.60;70.50;;;;;;5046879;28;20383;-76
2023/02/09 08:24:59;;;;;;;21.30;12.75;;;0.60;70.40;;;;;;5044877;28;20100;-77
2023/02/09 08:27:24;;;;;;;18.02;12.63;;;0.70;70.30;;;;;;5062426;28;20029;-75
2023/02/09 08:29:51;;;;;;;20.75;13.25;;;0.80;70.20;;;;;;5054807;28;20361;-75
2023/02/09 08:32:17;;;;;;;23.52;13.93;;;0.80;70.30;;;;;;5057082;28;20125;-75
2023/02/09 08:34:43;;;;;;;28.92;16.90;;;0.90;70.10;;;;;;5045347;28;20032;-81
2023/02/09 08:37:09;;;;;;;31.98;19.17;;;1.00;69.70;;;;;;5060070;28;20041;-75
2023/02/09 08:39:34;;;;;;;27.15;16.85;;;1.00;69.50;;;;;;5042460;28;20329;-76
2023/02/09 08:42:00;;;;;;;36.97;20.80;;;1.10;69.50;;;;;;5060535;28;20043;-75
2023/02/09 08:44:26;;;;;;;47.30;26.23;;;1.20;69.60;;;;;;5067348;28;20020;-77
2023/02/09 08:46:52;;;;;;;38.15;22.08;;;1.30;69.00;;;;;;5064009;28;20131;-75
2023/02/09 08:49:17;;;;;;;63.97;30.30;;;1.40;68.80;;;;;;5056198;28;20384;-76
2023/02/09 08:51:45;;;;;;;47.97;25.58;;;1.40;68.90;;;;;;5057418;28;20094;-75
2023/02/09 08:54:11;;;;;;;36.97;21.05;;;1.50;68.60;;;;;;5062181;28;20023;-75
2023/02/09 08:56:36;;;;;;;25.15;17.02;;;1.60;68.40;;;;;;5059535;28;20130;-77
2023/02/09 08:59:03;;;;;;;22.85;14.40;;;1.70;68.50;;;;;;5059726;28;20041;-74
2023/02/09 09:01:28;;;;;;;22.38;15.20;;;1.70;68.40;;;;;;5037627;28;20044;-74
2023/02/09 09:03:54;;;;;;;24.05;15.02;;;1.90;68.00;;;;;;5058702;28;20043;-74
2023/02/09 09:06:21;;;;;;;25.25;14.63;;;1.90;67.50;;;;;;5043910;28;20036;-76
2023/02/09 09:08:47;;;;;;;31.35;20.17;;;2.10;67.60;;;;;;5060857;28;20029;-74
2023/02/09 09:11:13;;;;;;;22.25;15.30;;;2.20;67.30;;;;;;5043935;28;20028;-75
2023/02/09 09:13:40;;;;;;;22.42;13.55;;;2.40;67.10;;;;;;5066656;28;20033;-75
2023/02/09 09:16:06;;;;;;;21.15;13.52;;;2.50;66.60;;;;;;5060484;28;20038;-74
2023/02/09 09:18:32;;;;;;;25.08;15.18;;;2.60;66.40;;;;;;5063211;28;20032;-77
2023/02/09 09:20:58;;;;;;;25.20;14.50;;;2.60;66.20;;;;;;5062881;28;20111;-78
2023/02/09 09:23:24;;;;;;;25.58;15.52;;;2.70;65.80;;;;;;5046262;28;20111;-76
2023/02/09 09:25:49;;;;;;;23.48;14.98;;;2.80;65.70;;;;;;5059443;28;20329;-77
2023/02/09 09:28:16;;;;;;;23.95;14.80;;;2.90;65.90;;;;;;5038008;28;20036;-75
2023/02/09 09:30:41;;;;;;;24.30;14.75;;;2.90;65.40;;;;;;5041823;28;20021;-73
2023/02/09 09:33:08;;;;;;;25.45;15.68;;;3.00;65.50;;;;;;5045556;28;20028;-74
2023/02/09 09:35:34;;;;;;;23.65;15.10;;;3.10;65.00;;;;;;5032968;28;20028;-75
2023/02/09 09:38:00;;;;;;;23.42;14.82;;;3.10;65.20;;;;;;5042617;28;20309;-74
2023/02/09 09:40:31;;;;;;;26.80;15.65;;;3.10;65.00;;;;;;5040445;28;20112;-76
2023/02/09 09:43:01;;;;;;;23.88;14.10;;;3.20;64.90;;;;;;5046750;28;20017;-75
2023/02/09 09:45:29;;;;;;;24.48;15.82;;;3.40;65.30;;;;;;5037028;28;20087;-77
2023/02/09 09:47:55;;;;;;;24.55;15.68;;;3.50;64.70;;;;;;5036996;28;20511;-74
2023/02/09 09:50:26;;;;;;;26.50;15.98;;;3.50;64.10;;;;;;5036879;28;20489;-76
2023/02/09 09:53:18;;;;;;;24.05;15.48;;;3.60;64.40;;;;;;5037328;28;20035;-75
2023/02/09 09:55:45;;;;;;;23.60;15.10;;;3.70;64.10;;;;;;5042623;28;20055;-75
2023/02/09 09:58:18;;;;;;;26.58;16.65;;;3.90;63.70;;;;;;5039216;28;20334;-74
2023/02/09 10:00:44;;;;;;;23.55;15.35;;;4.10;63.20;;;;;;5040317;28;20041;-78
2023/02/09 10:03:20;;;;;;;27.40;16.17;;;4.30;62.70;;;;;;5040135;28;20108;-76
2023/02/09 10:06:00;;;;;;;28.50;15.98;;;4.40;62.80;;;;;;5040497;28;20066;-75
2023/02/09 10:08:35;;;;;;;22.63;16.13;;;4.50;62.50;;;;;;5040328;28;20033;-77
2023/02/09 10:11:09;;;;;;;24.35;16.60;;;4.50;62.40;;;;;;5038196;28;20033;-74
2023/02/09 10:13:49;;;;;;;28.08;16.05;;;4.70;62.20;;;;;;5038469;28;20534;-74
2023/02/09 10:16:17;;;;;;;27.38;17.77;;;4.90;61.80;;;;;;5036591;28;20061;-75
2023/02/09 10:18:43;;;;;;;27.75;16.63;;;4.90;61.10;;;;;;5043026;28;20022;-76
2023/02/09 10:21:14;;;;;;;28.15;17.42;;;4.90;61.30;;;;;;5041667;28;20346;-75
2023/02/09 10:23:42;;;;;;;26.63;16.90;;;5.00;61.50;;;;;;5044793;28;20111;-73
2023/02/09 10:26:07;;;;;;;25.70;17.00;;;5.00;61.90;;;;;;5021096;28;20053;-75
2023/02/09 10:28:41;;;;;;;29.52;17.38;;;5.10;61.80;;;;;;5033398;28;20056;-74
2023/02/09 10:31:41;;;;;;;28.67;16.90;;;5.20;61.80;;;;;;5023257;28;20485;-73
2023/02/09 10:34:14;;;;;;;26.80;17.40;;;5.10;61.80;;;;;;5016251;28;20052;-76
2023/02/09 10:36:48;;;;;;;24.05;17.35;;;5.10;61.80;;;;;;5021583;28;20034;-72
2023/02/09 10:39:18;;;;;;;28.37;17.50;;;5.20;61.90;;;;;;5027950;28;20099;-73
2023/02/09 10:41:54;;;;;;;25.70;18.13;;;5.20;62.00;;;;;;5021646;28;20072;-73
2023/02/09 10:44:24;;;;;;;28.70;18.00;;;5.40;61.70;;;;;;5024142;28;20057;-73
2023/02/09 10:47:24;;;;;;;27.33;18.27;;;5.40;61.90;;;;;;5026496;28;20026;-74
2023/02/09 10:49:53;;;;;;;28.20;19.23;;;5.50;62.00;;;;;;5022678;28;20100;-74
2023/02/09 10:52:21;;;;;;;29.40;19.73;;;5.60;61.90;;;;;;5020120;28;20103;-75
2023/02/09 10:54:55;;;;;;;32.20;21.45;;;5.50;61.60;;;;;;5022481;28;20087;-73
2023/02/09 10:57:26;;;;;;;29.95;19.35;;;5.60;61.90;;;;;;5019170;28;20451;-74
2023/02/09 10:59:54;;;;;;;28.90;19.35;;;5.60;62.50;;;;;;5023698;28;20034;-73
2023/02/09 11:02:34;;;;;;;29.67;19.52;;;5.70;62.20;;;;;;5021268;28;20374;-73
2023/02/09 11:05:01;;;;;;;29.00;19.88;;;5.80;61.80;;;;;;5021695;28;20113;-73
2023/02/09 11:07:40;;;;;;;30.15;20.52;;;5.80;61.80;;;;;;5024156;28;20057;-73
2023/02/09 11:10:11;;;;;;;31.15;21.50;;;5.80;62.00;;;;;;5019195;28;20080;-75
2023/02/09 11:12:37;;;;;;;29.40;21.48;;;5.90;62.50;;;;;;5019294;28;20377;-77
2023/02/09 11:15:12;;;;;;;33.25;23.80;;;5.90;62.20;;;;;;5025993;28;20048;-74
2023/02/09 11:17:43;;;;;;;;;;;6.00;62.40;;;;;;5027306;28;20391;-73
2023/02/09 11:20:48;;;;;;;37.90;22.20;;;6.00;62.90;;;;;;5027302;28;19916;-73
2023/02/09 11:23:35;;;;;;;30.10;21.73;;;6.10;63.10;;;;;;5025397;28;20123;-73
2023/02/09 11:26:12;;;;;;;32.78;22.88;;;6.10;62.70;;;;;;5022188;28;20048;-73
2023/02/09 11:28:52;;;;;;;32.13;21.88;;;6.20;62.50;;;;;;5035612;28;20172;-73
2023/02/09 11:31:43;;;;;;;30.45;21.67;;;6.20;62.60;;;;;;5044849;28;20033;-75
2023/02/09 11:34:33;;;;;;;34.25;21.88;;;6.20;62.90;;;;;;5042939;28;20029;-73
2023/02/09 11:37:41;;;;;;;32.75;21.98;;;6.30;62.20;;;;;;5024817;28;20091;-73
2023/02/09 11:40:28;;;;;;;28.75;21.55;;;6.30;62.60;;;;;;5040051;28;20029;-74
2023/02/09 11:43:10;;;;;;;30.05;21.33;;;6.40;62.40;;;;;;5035840;28;20042;-79
2023/02/09 11:45:57;;;;;;;39.30;25.35;;;6.30;62.70;;;;;;5040709;28;20041;-74
2023/02/09 11:48:42;;;;;;;32.92;24.38;;;6.40;62.90;;;;;;5039518;28;20083;-73
2023/02/09 11:51:07;;;;;;;;;;;6.40;63.20;;;;;;5038232;28;20033;-76
2023/02/09 11:53:58;;;;;;;36.10;23.75;;;6.40;63.10;;;;;;5045674;28;19974;-72
2023/02/09 11:56:25;;;;;;;31.85;22.83;;;6.50;63.20;;;;;;5049793;28;20139;-73
2023/02/09 11:59:30;;;;;;;31.73;22.63;;;6.60;63.20;;;;;;5049515;28;20031;-75
2023/02/09 12:01:56;;;;;;;37.25;24.42;;;6.80;62.90;;;;;;5045243;28;20025;-76
2023/02/09 12:04:47;;;;;;;37.60;23.83;;;6.90;62.90;;;;;;5032391;28;20102;-74
2023/02/09 12:07:16;;;;;;;32.03;24.33;;;7.00;62.00;;;;;;5040195;28;20030;-72
2023/02/09 12:09:54;;;;;;;38.03;25.08;;;7.00;62.30;;;;;;5045525;28;20436;-73
2023/02/09 12:12:44;;;;;;;36.30;25.15;;;7.00;62.30;;;;;;5044118;28;20038;-74
2023/02/09 12:15:16;;;;;;;75.72;39.05;;;7.10;62.40;;;;;;5046345;28;20040;-73
2023/02/09 12:18:15;;;;;;;49.47;30.45;;;7.10;62.40;;;;;;5049734;28;20041;-73
2023/02/09 12:20:40;;;;;;;32.75;23.73;;;7.10;62.30;;;;;;5044390;28;20137;-76
2023/02/09 12:23:17;;;;;;;31.33;23.05;;;7.10;62.10;;;;;;5051084;28;20112;-72
2023/02/09 12:25:53;;;;;;;49.85;32.45;;;7.00;62.20;;;;;;5044160;28;20048;-73
2023/02/09 12:28:31;;;;;;;44.95;29.25;;;7.00;63.00;;;;;;5048309;28;20053;-78
2023/02/09 12:30:59;;;;;;;57.47;30.98;;;7.00;63.00;;;;;;5048267;28;20037;-73
2023/02/09 12:33:25;;;;;;;60.45;32.80;;;6.90;63.10;;;;;;5025127;28;20102;-74
2023/02/09 12:36:09;;;;;;;51.80;31.30;;;7.00;63.20;;;;;;5042412;28;20467;-73
2023/02/09 12:38:57;;;;;;;40.65;26.50;;;7.00;63.20;;;;;;5046549;28;20400;-75
2023/02/09 12:41:37;;;;;;;48.28;30.50;;;7.10;63.10;;;;;;5045081;28;20037;-75
2023/02/09 12:44:09;;;;;;;36.97;25.95;;;7.20;63.30;;;;;;5044053;28;20029;-77
2023/02/09 12:46:47;;;;;;;34.33;26.55;;;7.30;62.80;;;;;;5030259;28;20036;-74
2023/02/09 12:49:12;;;;;;;37.35;27.20;;;7.30;63.10;;;;;;5047168;28;20040;-76
2023/02/09 12:51:51;;;;;;;46.67;31.75;;;7.50;63.30;;;;;;5046662;28;20033;-73
2023/02/09 12:54:29;;;;;;;37.65;27.20;;;7.60;63.10;;;;;;5024917;28;20377;-72